createdAt,value
2022-08-02T00:02:29.403Z,100083.38
2022-08-02T00:07:33.438Z,100091.00
2022-08-02T00:12:40.200Z,100120.66
2022-08-02T00:17:42.643Z,100121.59
2022-08-02T00:22:45.179Z,100105.41
2022-08-02T00:27:47.546Z,100124.25
2022-08-02T00:32:50.251Z,100067.66
2022-08-02T00:37:52.571Z,100123.44
2022-08-02T00:43:04.909Z,100140.34
2022-08-02T00:48:08.751Z,100110.75
2022-08-02T00:53:11.277Z,100122.94
2022-08-02T00:58:13.715Z,100055.22
2022-08-02T01:03:16.143Z,100112.31
2022-08-02T01:08:18.724Z,100071.44
2022-08-02T01:13:22.254Z,100126.59
2022-08-02T01:18:37.106Z,100111.41
2022-08-02T01:24:06.910Z,100111.06
2022-08-02T01:29:31.355Z,100124.91
2022-08-02T01:34:43.292Z,100105.63
2022-08-02T01:39:48.063Z,100112.69
2022-08-02T01:44:54.064Z,100107.75
2022-08-02T01:49:59.240Z,100100.84
2022-08-02T01:55:18.809Z,100119.78
2022-08-02T02:00:24.819Z,100096.69
2022-08-02T02:05:31.864Z,100114.34
2022-08-02T02:10:39.554Z,100121.81
2022-08-02T02:15:47.084Z,100098.91
2022-08-02T02:20:50.360Z,100122.31
2022-08-02T02:25:55.795Z,100122.31
2022-08-02T02:31:08.661Z,100083.03
2022-08-02T02:36:22.018Z,100114.97
2022-08-02T02:41:27.673Z,100104.13
2022-08-02T02:46:32.959Z,100116.91
2022-08-02T02:51:36.089Z,100102.91
2022-08-02T02:56:39.936Z,100090.25
2022-08-02T03:01:56.823Z,100142.72
2022-08-02T03:07:04.745Z,100055.66
2022-08-02T03:12:07.748Z,100109.13
2022-08-02T03:17:10.390Z,100059.06
2022-08-02T03:22:13.075Z,100096.81
2022-08-02T03:27:15.746Z,100127.06
2022-08-02T03:32:18.181Z,100081.56
2022-08-02T03:37:22.277Z,100118.47
2022-08-02T03:42:27.422Z,100104.13
2022-08-02T03:47:30.448Z,100159.28
2022-08-02T03:52:34.252Z,100168.03
2022-08-02T03:57:40.425Z,100168.38
2022-08-02T04:02:42.787Z,100147.94
2022-08-02T04:08:33.818Z,100170.31
2022-08-02T04:13:08.352Z,100180.69
2022-08-02T04:18:11.056Z,100180.69
2022-08-02T04:23:16.343Z,100176.16
2022-08-02T04:28:19.322Z,100168.16
2022-08-02T04:33:31.870Z,100200.56
2022-08-02T04:38:34.589Z,100173.22
2022-08-02T04:43:37.062Z,100163.16
2022-08-02T04:48:39.485Z,100165.25
2022-08-02T04:53:41.918Z,100194.47
2022-08-02T04:58:44.374Z,100186.84
2022-08-02T05:03:46.893Z,100167.72
2022-08-02T05:08:52.331Z,100072.91
2022-08-02T05:13:59.106Z,100031.22
2022-08-02T05:19:02.780Z,100101.13
2022-08-02T05:24:06.118Z,100027.00
2022-08-02T05:29:08.632Z,100187.13
2022-08-02T05:34:12.137Z,100080.88
2022-08-02T05:39:18.655Z,100098.53
2022-08-02T05:44:21.521Z,100188.00
2022-08-02T05:49:23.982Z,100193.13
2022-08-02T05:54:43.628Z,100196.03
2022-08-02T06:00:07.105Z,100177.28
2022-08-02T06:05:11.934Z,100229.84
2022-08-02T06:10:16.078Z,100182.34
2022-08-02T06:15:20.119Z,100208.47
2022-08-02T06:20:23.641Z,100190.16
2022-08-02T06:25:51.238Z,100110.41
2022-08-02T06:30:49.503Z,100209.47
2022-08-02T06:36:06.581Z,100210.88
2022-08-02T06:41:13.817Z,100185.91
2022-08-02T06:46:37.619Z,100215.28
2022-08-02T06:51:39.506Z,100119.25
2022-08-02T06:56:41.936Z,100181.19
2022-08-02T07:01:44.426Z,100199.25
2022-08-02T07:06:46.995Z,100205.63
2022-08-02T07:11:49.404Z,100126.09
2022-08-02T07:16:52.268Z,100205.75
2022-08-02T07:21:59.310Z,100154.38
2022-08-02T07:27:12.708Z,100125.63
2022-08-02T07:32:20.588Z,100197.22
2022-08-02T07:37:53.931Z,100104.59
2022-08-02T07:43:02.375Z,100110.47
2022-08-02T07:48:06.626Z,100147.06
2022-08-02T07:53:09.084Z,100163.63
2022-08-02T07:58:13.546Z,100223.47
2022-08-02T08:03:16.307Z,100218.09
2022-08-02T08:08:18.823Z,100221.50
2022-08-02T08:13:21.532Z,100183.78
2022-08-02T08:18:24.225Z,100075.13
2022-08-02T08:23:26.754Z,100117.31
2022-08-02T08:28:29.484Z,100157.19
2022-08-02T08:33:31.980Z,100130.22
2022-08-02T08:38:34.905Z,100129.94
2022-08-02T08:43:38.006Z,100061.50
2022-08-02T08:48:44.966Z,100077.94
2022-08-02T08:53:49.841Z,100178.50
2022-08-02T08:58:52.307Z,100181.25
2022-08-02T09:03:54.846Z,100127.56
2022-08-02T09:08:57.599Z,100159.72
2022-08-02T09:14:01.649Z,100077.34
2022-08-02T09:19:22.577Z,100110.81
2022-08-02T09:24:25.236Z,100052.47
2022-08-02T09:29:48.628Z,100154.34
2022-08-02T09:34:59.843Z,100171.53
2022-08-02T09:40:05.695Z,100054.72
2022-08-02T09:45:09.498Z,100108.44
2022-08-02T09:50:15.059Z,100117.38
2022-08-02T09:55:18.042Z,100091.53
2022-08-02T10:00:37.075Z,100100.84
2022-08-02T10:06:02.308Z,100144.78
2022-08-02T10:11:06.030Z,100078.97
2022-08-02T10:16:08.550Z,100071.06
2022-08-02T10:21:17.175Z,100069.56
2022-08-02T10:26:21.422Z,100088.13
2022-08-02T10:31:29.066Z,99962.31
2022-08-02T10:36:34.578Z,100123.34
2022-08-02T10:41:53.669Z,100056.00
2022-08-02T10:47:15.020Z,100109.28
2022-08-02T10:52:19.769Z,99981.56
2022-08-02T10:57:36.098Z,100007.22
2022-08-02T11:02:45.040Z,99993.50
2022-08-02T11:07:54.060Z,100097.81
2022-08-02T11:13:01.955Z,99998.72
2022-08-02T11:18:04.626Z,100078.97
2022-08-02T11:23:45.149Z,100091.22
2022-08-02T11:28:51.743Z,100051.63
2022-08-02T11:33:54.937Z,100089.84
2022-08-02T11:39:11.312Z,100070.66
2022-08-02T11:44:13.697Z,100030.50
2022-08-02T11:49:18.892Z,100061.53
2022-08-02T11:54:26.074Z,100037.47
2022-08-02T11:59:28.571Z,100065.44
2022-08-02T12:04:31.003Z,100029.94
2022-08-02T12:09:40.915Z,100043.44
2022-08-02T12:14:44.991Z,100040.56
2022-08-02T12:19:49.435Z,100029.47
2022-08-02T12:24:55.731Z,100052.63
2022-08-02T12:30:10.356Z,100037.34
2022-08-02T12:35:14.497Z,100037.72
2022-08-02T12:40:33.372Z,99997.91
2022-08-02T12:45:58.032Z,99978.94
2022-08-02T12:51:04.244Z,100028.00
2022-08-02T12:56:06.663Z,100009.69
2022-08-02T13:01:09.206Z,99984.31
2022-08-02T13:06:41.204Z,99999.47
2022-08-02T13:11:36.810Z,99882.06
2022-08-02T13:16:42.631Z,100008.09
2022-08-02T13:22:01.838Z,99980.72
2022-08-02T13:27:08.721Z,100002.47
2022-08-02T13:32:11.797Z,100007.00
2022-08-02T13:37:15.039Z,100001.13
2022-08-02T13:42:18.167Z,99997.50
2022-08-02T13:47:35.935Z,99998.31
2022-08-02T13:52:43.223Z,99978.03
2022-08-02T13:57:45.661Z,99984.81
2022-08-02T14:02:56.294Z,99981.28
2022-08-02T14:08:00.382Z,100002.13
2022-08-02T14:18:48.991Z,99975.13
2022-08-02T14:23:51.317Z,99991.78
2022-08-02T14:28:53.956Z,100015.66
2022-08-02T14:33:56.765Z,99983.31
2022-08-02T14:38:59.218Z,100005.84
2022-08-02T14:44:10.546Z,99986.47
2022-08-02T14:49:14.609Z,100002.69
2022-08-02T14:54:29.987Z,99962.44
2022-08-02T14:59:33.638Z,99993.44
2022-08-02T15:04:42.627Z,99994.84
2022-08-02T15:09:46.170Z,99997.41
2022-08-02T15:14:48.919Z,99992.28
2022-08-02T15:19:59.514Z,99989.94
2022-08-02T15:25:04.998Z,99982.38
2022-08-02T15:30:17.735Z,99955.06
2022-08-02T15:35:20.230Z,99995.81
2022-08-02T15:40:23.936Z,100009.94
2022-08-02T15:45:28.369Z,99962.50
2022-08-02T15:50:31.248Z,100004.41
2022-08-02T15:55:52.016Z,99981.97
2022-08-02T16:00:56.766Z,99977.22
2022-08-02T16:05:59.247Z,99983.81
2022-08-02T16:11:01.848Z,99943.56
2022-08-02T16:16:04.477Z,99908.88
2022-08-02T16:21:07.083Z,100011.97
2022-08-02T16:26:09.749Z,99976.31
2022-08-02T16:31:12.356Z,99970.19
2022-08-02T16:36:15.629Z,99946.97
2022-08-02T16:41:22.787Z,99999.00
2022-08-02T16:46:25.167Z,100000.69
2022-08-02T16:51:28.112Z,100043.50
2022-08-02T16:56:34.020Z,100028.72
2022-08-02T17:02:04.079Z,100045.72
2022-08-02T17:06:59.031Z,100043.56
2022-08-02T17:12:01.736Z,100027.63
2022-08-02T17:17:04.540Z,100043.53
2022-08-02T17:22:06.939Z,100022.53
2022-08-02T17:27:13.868Z,100044.84
2022-08-02T17:32:18.909Z,100080.84
2022-08-02T17:37:21.715Z,100055.41
2022-08-02T17:42:24.952Z,100088.25
2022-08-02T17:47:31.021Z,100076.03
2022-08-02T17:52:52.417Z,100087.75
2022-08-02T17:57:58.500Z,100059.00
2022-08-02T18:03:06.242Z,100097.06
2022-08-02T18:08:10.470Z,100045.13
2022-08-02T18:13:16.339Z,100082.06
2022-08-02T18:18:29.429Z,100074.63
2022-08-02T18:23:32.702Z,100090.75
2022-08-02T18:28:41.211Z,100120.16
2022-08-02T18:33:58.140Z,100105.34
2022-08-02T18:39:08.243Z,100123.09
2022-08-02T18:44:15.700Z,100114.34
2022-08-02T18:49:18.740Z,100126.09
2022-08-02T18:54:26.631Z,100112.78
2022-08-02T18:59:37.501Z,100145.16
2022-08-02T19:04:47.007Z,100150.16
2022-08-02T19:09:50.005Z,100147.56
2022-08-02T19:14:52.512Z,100153.09
2022-08-02T19:19:56.118Z,100124.69
2022-08-02T19:25:00.951Z,100071.75
2022-08-02T19:30:28.090Z,100072.13
2022-08-02T19:35:34.470Z,100097.06
2022-08-02T19:40:39.967Z,100023.03
2022-08-02T19:45:49.178Z,100100.00
2022-08-02T19:50:56.366Z,100036.25
2022-08-02T19:56:02.757Z,100130.09
2022-08-02T20:01:07.949Z,100083.47
2022-08-02T20:06:19.236Z,100188.75
2022-08-02T20:11:23.350Z,100175.38
2022-08-02T20:16:28.267Z,100175.22
2022-08-02T20:21:37.218Z,100186.88
2022-08-02T20:26:47.057Z,100161.44
2022-08-02T20:31:53.878Z,100201.41
2022-08-02T20:36:56.507Z,100157.28
2022-08-02T20:42:01.227Z,100062.72
2022-08-02T20:47:08.626Z,100128.88
2022-08-02T20:52:23.027Z,100200.66
2022-08-02T20:57:36.207Z,100198.13
2022-08-02T21:02:49.217Z,100175.59
2022-08-02T21:07:53.517Z,100176.28
2022-08-02T21:13:00.283Z,100220.56
2022-08-02T21:18:28.735Z,100157.38
2022-08-02T21:23:44.849Z,100209.19
2022-08-02T21:28:51.419Z,100202.03
2022-08-02T21:33:58.255Z,100198.28
2022-08-02T21:39:09.105Z,100231.28
2022-08-02T21:44:11.875Z,100233.44
2022-08-02T21:54:39.962Z,100228.44
2022-08-02T22:00:00.699Z,100219.38
2022-08-02T22:05:03.396Z,100250.16
2022-08-02T22:10:12.407Z,100200.88
2022-08-02T22:15:15.218Z,100252.59
2022-08-02T22:25:40.379Z,100239.72
2022-08-02T22:30:43.671Z,100242.78
2022-08-02T22:35:46.539Z,100225.72
2022-08-02T22:40:50.184Z,100252.63
2022-08-02T22:45:52.506Z,100246.88
2022-08-02T22:50:57.922Z,100222.69
2022-08-02T22:56:00.318Z,100220.00
2022-08-02T23:01:04.752Z,100262.91
2022-08-02T23:06:07.518Z,100255.00
2022-08-02T23:11:09.877Z,100235.09
2022-08-02T23:16:30.918Z,100259.91
2022-08-02T23:22:01.191Z,100238.56
2022-08-02T23:26:56.030Z,100233.59
2022-08-02T23:31:59.085Z,100231.34
2022-08-02T23:37:04.378Z,100268.31
2022-08-02T23:42:06.844Z,100257.97
2022-08-02T23:47:11.441Z,100234.56
2022-08-02T23:52:14.428Z,100255.56
2022-08-02T23:57:20.462Z,100234.72
